createdAt,value
2022-12-25T00:01:21.068Z,8.20
2022-12-25T00:03:48.534Z,8.20
2022-12-25T00:06:15.548Z,8.20
2022-12-25T00:08:42.988Z,8.20
2022-12-25T00:11:15.166Z,8.30
2022-12-25T00:13:43.081Z,8.30
2022-12-25T00:16:15.686Z,8.30
2022-12-25T00:18:42.621Z,8.30
2022-12-25T00:21:11.026Z,8.30
2022-12-25T00:23:38.348Z,8.30
2022-12-25T00:26:10.751Z,8.40
2022-12-25T00:28:37.833Z,8.50
2022-12-25T00:31:10.610Z,8.50
2022-12-25T00:33:39.710Z,8.50
2022-12-25T00:36:08.032Z,8.50
2022-12-25T00:38:36.639Z,8.50
2022-12-25T00:41:08.507Z,8.50
2022-12-25T00:43:35.498Z,8.60
2022-12-25T00:46:04.585Z,8.70
2022-12-25T00:48:32.423Z,8.70
2022-12-25T00:51:01.751Z,8.70
2022-12-25T00:53:29.190Z,8.70
2022-12-25T00:55:56.923Z,8.60
2022-12-25T00:58:25.416Z,8.60
2022-12-25T01:00:52.270Z,8.70
2022-12-25T01:03:19.307Z,8.70
2022-12-25T01:05:59.132Z,8.80
2022-12-25T01:08:28.897Z,8.80
2022-12-25T01:10:57.763Z,8.80
2022-12-25T01:13:25.352Z,8.90
2022-12-25T01:15:52.622Z,8.90
2022-12-25T01:18:20.366Z,8.90
2022-12-25T01:20:47.736Z,8.90
2022-12-25T01:23:14.820Z,8.90
2022-12-25T01:25:41.802Z,8.80
2022-12-25T01:28:08.849Z,8.90
2022-12-25T01:30:35.685Z,8.90
2022-12-25T01:33:02.557Z,8.90
2022-12-25T01:35:29.391Z,9.00
2022-12-25T01:37:56.199Z,9.00
2022-12-25T01:40:23.090Z,9.00
2022-12-25T01:42:49.888Z,9.00
2022-12-25T01:45:36.020Z,9.00
2022-12-25T01:48:07.262Z,9.00
2022-12-25T01:50:35.753Z,9.00
2022-12-25T01:53:03.629Z,9.00
2022-12-25T01:55:30.729Z,9.00
2022-12-25T01:57:57.547Z,9.00
2022-12-25T02:00:24.722Z,9.10
2022-12-25T02:02:51.672Z,9.10
2022-12-25T02:05:30.467Z,9.10
2022-12-25T02:08:07.708Z,9.10
2022-12-25T02:10:34.429Z,9.10
2022-12-25T02:13:01.930Z,9.00
2022-12-25T02:15:42.347Z,9.00
2022-12-25T02:18:19.288Z,9.10
2022-12-25T02:20:58.005Z,9.10
2022-12-25T02:23:43.137Z,9.10
2022-12-25T02:26:31.981Z,9.10
2022-12-25T02:29:15.780Z,9.10
2022-12-25T02:31:55.232Z,9.20
2022-12-25T02:34:36.621Z,9.20
2022-12-25T02:37:25.563Z,9.20
2022-12-25T02:40:06.354Z,9.20
2022-12-25T02:43:25.737Z,9.20
2022-12-25T02:46:24.385Z,9.30
2022-12-25T02:49:11.977Z,9.30
2022-12-25T02:52:03.648Z,9.40
2022-12-25T02:54:56.732Z,9.30
2022-12-25T02:57:47.915Z,9.40
2022-12-25T03:00:34.304Z,9.40
2022-12-25T03:03:23.032Z,9.40
2022-12-25T03:06:09.985Z,9.50
2022-12-25T03:08:42.752Z,9.50
2022-12-25T03:11:31.003Z,9.60
2022-12-25T03:14:24.999Z,9.60
2022-12-25T03:16:54.782Z,9.60
2022-12-25T03:19:45.604Z,9.60
2022-12-25T03:22:38.030Z,9.60
2022-12-25T03:25:43.488Z,9.60
2022-12-25T03:28:10.307Z,9.60
2022-12-25T03:31:10.595Z,9.70
2022-12-25T03:34:23.845Z,9.70
2022-12-25T03:37:19.700Z,9.70
2022-12-25T03:40:25.514Z,9.70
2022-12-25T03:44:02.244Z,9.70
2022-12-25T03:46:54.013Z,9.70
2022-12-25T03:49:48.052Z,9.70
2022-12-25T03:52:37.643Z,9.80
2022-12-25T03:55:27.825Z,9.80
2022-12-25T03:58:13.375Z,9.80
2022-12-25T04:00:58.786Z,9.80
2022-12-25T04:03:44.070Z,9.80
2022-12-25T04:06:29.180Z,9.70
2022-12-25T04:09:14.530Z,9.70
2022-12-25T04:12:02.747Z,9.70
2022-12-25T04:14:49.137Z,9.70
2022-12-25T04:17:34.218Z,9.70
2022-12-25T04:20:19.639Z,9.60
2022-12-25T04:23:05.096Z,9.60
2022-12-25T04:25:50.400Z,9.70
2022-12-25T04:28:35.769Z,9.60
2022-12-25T04:31:21.228Z,9.60
2022-12-25T04:34:06.658Z,9.60
2022-12-25T04:36:33.464Z,9.60
2022-12-25T04:39:00.240Z,9.60
2022-12-25T04:41:27.021Z,9.60
2022-12-25T04:43:53.785Z,9.60
2022-12-25T04:46:20.614Z,9.60
2022-12-25T04:48:47.404Z,9.60
2022-12-25T04:51:16.929Z,9.60
2022-12-25T04:53:44.597Z,9.70
2022-12-25T04:56:11.853Z,9.60
2022-12-25T04:58:38.777Z,9.70
2022-12-25T05:01:05.918Z,9.70
2022-12-25T05:03:33.287Z,9.60
2022-12-25T05:06:00.508Z,9.70
2022-12-25T05:08:28.571Z,9.60
2022-12-25T05:10:55.328Z,9.60
2022-12-25T05:13:22.197Z,9.50
2022-12-25T05:15:49.061Z,9.50
2022-12-25T05:18:15.868Z,9.40
2022-12-25T05:20:42.641Z,9.40
2022-12-25T05:23:11.960Z,9.30
2022-12-25T05:25:40.488Z,9.30
2022-12-25T05:28:07.890Z,9.20
2022-12-25T05:30:35.471Z,9.10
2022-12-25T05:33:02.572Z,9.00
2022-12-25T05:35:29.288Z,8.90
2022-12-25T05:37:56.059Z,8.90
2022-12-25T05:40:23.095Z,8.90
2022-12-25T05:42:49.857Z,8.90
2022-12-25T05:45:16.742Z,8.90
2022-12-25T05:47:43.503Z,8.90
2022-12-25T05:50:10.635Z,8.80
2022-12-25T05:52:37.394Z,8.90
2022-12-25T05:55:04.537Z,8.90
2022-12-25T05:57:32.005Z,8.90
2022-12-25T05:59:58.817Z,8.90
2022-12-25T06:02:26.223Z,8.90
2022-12-25T06:04:53.248Z,8.80
2022-12-25T06:07:20.239Z,8.90
2022-12-25T06:09:47.794Z,8.90
2022-12-25T06:12:14.635Z,8.90
2022-12-25T06:14:41.397Z,8.90
2022-12-25T06:17:08.324Z,8.90
2022-12-25T06:19:35.101Z,8.90
2022-12-25T06:22:01.864Z,8.80
2022-12-25T06:24:28.784Z,8.80
2022-12-25T06:26:55.624Z,8.80
2022-12-25T06:29:22.376Z,8.80
2022-12-25T06:31:49.281Z,8.80
2022-12-25T06:34:16.482Z,8.80
2022-12-25T06:36:43.509Z,8.80
2022-12-25T06:39:10.834Z,8.80
2022-12-25T06:41:38.022Z,8.80
2022-12-25T06:44:04.946Z,8.80
2022-12-25T06:46:31.995Z,8.70
2022-12-25T06:48:59.417Z,8.70
2022-12-25T06:51:28.161Z,8.70
2022-12-25T06:53:55.857Z,8.60
2022-12-25T06:56:27.785Z,8.60
2022-12-25T06:59:00.398Z,8.60
2022-12-25T07:01:35.166Z,8.60
2022-12-25T07:04:05.313Z,8.60
2022-12-25T07:06:33.134Z,8.60
2022-12-25T07:08:59.949Z,8.60
2022-12-25T07:11:26.751Z,8.60
2022-12-25T07:13:53.568Z,8.50
2022-12-25T07:16:20.516Z,8.50
2022-12-25T07:18:47.367Z,8.50
2022-12-25T07:21:16.467Z,8.40
2022-12-25T07:23:44.108Z,8.40
2022-12-25T07:26:12.139Z,8.40
2022-12-25T07:28:39.222Z,8.40
2022-12-25T07:31:09.657Z,8.40
2022-12-25T07:33:36.449Z,8.30
2022-12-25T07:36:03.845Z,8.20
2022-12-25T07:38:30.678Z,8.20
2022-12-25T07:40:57.533Z,8.20
2022-12-25T07:43:24.370Z,8.30
2022-12-25T07:45:58.736Z,8.30
2022-12-25T07:48:26.732Z,8.30
2022-12-25T07:51:05.154Z,8.50
2022-12-25T07:53:32.117Z,8.60
2022-12-25T07:56:01.284Z,8.70
2022-12-25T07:58:29.052Z,8.80
2022-12-25T08:01:01.641Z,8.80
2022-12-25T08:03:28.631Z,8.90
2022-12-25T08:06:00.206Z,8.90
2022-12-25T08:08:27.071Z,9.00
2022-12-25T08:10:53.826Z,9.00
2022-12-25T08:13:20.604Z,9.00
2022-12-25T08:15:47.436Z,9.00
2022-12-25T08:18:14.440Z,9.10
2022-12-25T08:20:41.247Z,9.10
2022-12-25T08:23:08.143Z,9.10
2022-12-25T08:25:35.056Z,9.10
2022-12-25T08:28:01.985Z,9.10
2022-12-25T08:30:28.811Z,9.20
2022-12-25T08:32:55.954Z,9.20
2022-12-25T08:35:22.757Z,9.30
2022-12-25T08:37:49.631Z,9.40
2022-12-25T08:40:16.462Z,9.40
2022-12-25T08:42:43.284Z,9.50
2022-12-25T08:45:10.729Z,9.50
2022-12-25T08:47:37.421Z,9.50
2022-12-25T08:50:04.606Z,9.50
2022-12-25T08:52:31.527Z,9.50
2022-12-25T08:54:58.278Z,9.60
2022-12-25T08:57:25.122Z,9.60
2022-12-25T08:59:51.873Z,9.60
2022-12-25T09:02:19.293Z,9.60
2022-12-25T09:04:46.790Z,9.60
2022-12-25T09:07:13.561Z,9.70
2022-12-25T09:09:40.371Z,9.70
2022-12-25T09:12:07.295Z,9.70
2022-12-25T09:14:34.096Z,9.80
2022-12-25T09:17:00.865Z,9.80
2022-12-25T09:19:27.647Z,9.90
2022-12-25T09:21:54.399Z,9.90
2022-12-25T09:24:21.259Z,9.90
2022-12-25T09:26:48.106Z,9.90
2022-12-25T09:29:16.454Z,9.90
2022-12-25T09:31:43.605Z,9.90
2022-12-25T09:34:16.940Z,9.90
2022-12-25T09:36:45.469Z,9.90
2022-12-25T09:39:12.368Z,9.90
2022-12-25T09:41:59.648Z,9.90
2022-12-25T09:44:40.339Z,9.80
2022-12-25T09:47:13.349Z,9.80
2022-12-25T09:49:40.183Z,9.90
2022-12-25T09:52:16.124Z,9.90
2022-12-25T09:54:57.832Z,9.90
2022-12-25T09:57:26.081Z,9.90
2022-12-25T09:59:56.443Z,9.90
2022-12-25T10:02:47.294Z,9.90
2022-12-25T10:05:26.059Z,9.90
2022-12-25T10:08:14.169Z,9.90
2022-12-25T10:10:55.436Z,9.90
2022-12-25T10:14:07.940Z,9.90
2022-12-25T10:16:35.229Z,9.90
2022-12-25T10:19:10.560Z,9.90
2022-12-25T10:21:37.807Z,9.90
2022-12-25T10:24:04.643Z,10.00
2022-12-25T10:26:33.651Z,10.00
2022-12-25T10:29:14.652Z,10.00
2022-12-25T10:31:44.271Z,10.00
2022-12-25T10:34:13.258Z,10.00
2022-12-25T10:36:43.538Z,10.00
2022-12-25T10:39:25.515Z,10.00
2022-12-25T10:41:58.120Z,10.00
2022-12-25T10:44:25.303Z,10.10
2022-12-25T10:46:56.277Z,10.10
2022-12-25T10:49:38.741Z,10.10
2022-12-25T10:52:24.192Z,10.10
2022-12-25T10:54:51.068Z,10.20
2022-12-25T10:57:21.547Z,10.20
2022-12-25T10:59:56.761Z,10.20
2022-12-25T11:02:28.170Z,10.20
2022-12-25T11:05:08.074Z,10.20
2022-12-25T11:07:51.061Z,10.20
2022-12-25T11:10:23.935Z,10.20
2022-12-25T11:12:51.555Z,10.20
2022-12-25T11:15:47.711Z,10.20
2022-12-25T11:18:20.572Z,10.20
2022-12-25T11:20:55.999Z,10.20
2022-12-25T11:23:25.219Z,10.20
2022-12-25T11:26:01.116Z,10.20
2022-12-25T11:28:30.903Z,10.20
2022-12-25T11:31:22.081Z,10.20
2022-12-25T11:34:08.146Z,10.20
2022-12-25T11:36:47.042Z,10.20
2022-12-25T11:39:27.879Z,10.20
2022-12-25T11:42:19.408Z,10.30
2022-12-25T11:45:08.604Z,10.20
2022-12-25T11:47:37.947Z,10.20
2022-12-25T11:50:20.300Z,10.20
2022-12-25T11:52:48.088Z,10.20
2022-12-25T11:55:38.115Z,10.20
2022-12-25T11:58:15.872Z,10.20
2022-12-25T12:00:45.043Z,10.20
2022-12-25T12:03:27.140Z,10.30
2022-12-25T12:06:02.394Z,10.30
2022-12-25T12:08:30.789Z,10.30
2022-12-25T12:11:16.447Z,10.20
2022-12-25T12:14:03.888Z,10.30
2022-12-25T12:16:31.028Z,10.30
2022-12-25T12:18:57.918Z,10.30
2022-12-25T12:21:28.909Z,10.30
2022-12-25T12:24:06.746Z,10.30
2022-12-25T12:26:37.937Z,10.30
2022-12-25T12:29:07.992Z,10.30
2022-12-25T12:31:47.317Z,10.30
2022-12-25T12:34:42.565Z,10.30
2022-12-25T12:37:32.211Z,10.40
2022-12-25T12:39:59.523Z,10.40
2022-12-25T12:42:30.934Z,10.40
2022-12-25T12:45:08.459Z,10.40
2022-12-25T12:47:42.046Z,10.40
2022-12-25T12:50:30.317Z,10.40
2022-12-25T12:52:57.623Z,10.40
2022-12-25T12:55:33.601Z,10.40
2022-12-25T12:58:02.531Z,10.40
2022-12-25T13:00:42.596Z,10.40
2022-12-25T13:03:32.457Z,10.40
2022-12-25T13:06:09.311Z,10.40
2022-12-25T13:09:04.782Z,10.40
2022-12-25T13:11:38.723Z,10.40
2022-12-25T13:14:05.867Z,10.40
2022-12-25T13:16:43.612Z,10.40
2022-12-25T13:19:21.723Z,10.40
2022-12-25T13:22:03.677Z,10.50
2022-12-25T13:24:35.895Z,10.40
2022-12-25T13:27:29.730Z,10.40
2022-12-25T13:29:57.230Z,10.40
2022-12-25T13:32:25.282Z,10.50
2022-12-25T13:34:53.286Z,10.50
2022-12-25T13:37:23.281Z,10.50
2022-12-25T13:39:53.302Z,10.50
2022-12-25T13:42:32.073Z,10.50
2022-12-25T13:45:01.580Z,10.50
2022-12-25T13:47:34.888Z,10.50
2022-12-25T13:50:17.016Z,10.50
2022-12-25T13:52:43.792Z,10.60
2022-12-25T13:55:13.871Z,10.60
2022-12-25T13:57:44.247Z,10.60
2022-12-25T14:00:26.733Z,10.60
2022-12-25T14:02:54.193Z,10.60
2022-12-25T14:05:27.184Z,10.60
2022-12-25T14:07:56.082Z,10.70
2022-12-25T14:10:27.184Z,10.70
2022-12-25T14:12:57.953Z,10.70
2022-12-25T14:15:25.213Z,10.70
2022-12-25T14:17:52.447Z,10.70
2022-12-25T14:20:28.558Z,10.80
2022-12-25T14:22:57.402Z,10.80
2022-12-25T14:25:37.158Z,10.80
2022-12-25T14:28:08.114Z,10.80
2022-12-25T14:30:36.200Z,10.80
2022-12-25T14:33:03.284Z,10.80
2022-12-25T14:35:30.939Z,10.90
2022-12-25T14:38:00.219Z,10.90
2022-12-25T14:40:30.960Z,10.90
2022-12-25T14:43:03.190Z,10.90
2022-12-25T14:45:31.552Z,10.90
2022-12-25T14:48:02.827Z,11.00
2022-12-25T14:50:39.728Z,11.00
2022-12-25T14:53:19.684Z,11.00
2022-12-25T14:55:52.692Z,11.10
2022-12-25T14:58:26.362Z,11.10
2022-12-25T15:01:04.303Z,11.10
2022-12-25T15:03:34.945Z,11.10
2022-12-25T15:06:03.983Z,11.10
2022-12-25T15:08:32.797Z,11.10
2022-12-25T15:11:02.349Z,11.20
2022-12-25T15:13:30.960Z,11.20
2022-12-25T15:16:12.412Z,11.20
2022-12-25T15:18:44.613Z,11.20
2022-12-25T15:21:15.650Z,11.20
2022-12-25T15:23:42.526Z,11.20
2022-12-25T15:26:14.086Z,11.20
2022-12-25T15:28:41.101Z,11.20
2022-12-25T15:31:28.861Z,11.20
2022-12-25T15:33:58.225Z,11.30
2022-12-25T15:36:25.806Z,11.30
2022-12-25T15:38:53.282Z,11.30
2022-12-25T15:41:41.259Z,11.30
2022-12-25T15:44:08.261Z,11.20
2022-12-25T15:46:35.125Z,11.20
2022-12-25T15:49:02.027Z,11.20
2022-12-25T15:51:28.912Z,11.20
2022-12-25T15:53:55.917Z,11.30
2022-12-25T15:56:23.875Z,11.20
2022-12-25T15:58:50.711Z,11.30
2022-12-25T16:01:19.904Z,11.30
2022-12-25T16:03:47.305Z,11.30
2022-12-25T16:06:16.045Z,11.40
2022-12-25T16:08:43.757Z,11.40
2022-12-25T16:11:11.046Z,11.40
2022-12-25T16:13:37.987Z,11.40
2022-12-25T16:16:06.743Z,11.40
2022-12-25T16:18:33.695Z,11.40
2022-12-25T16:21:00.717Z,11.50
2022-12-25T16:23:27.519Z,11.50
2022-12-25T16:25:54.304Z,11.40
2022-12-25T16:28:21.062Z,11.50
2022-12-25T16:30:48.049Z,11.50
2022-12-25T16:33:15.441Z,11.50
2022-12-25T16:35:42.270Z,11.50
2022-12-25T16:38:09.162Z,11.50
2022-12-25T16:40:35.975Z,11.50
2022-12-25T16:43:02.966Z,11.50
2022-12-25T16:45:29.927Z,11.60
2022-12-25T16:47:57.351Z,11.60
2022-12-25T16:50:24.073Z,11.60
2022-12-25T16:52:51.279Z,11.60
2022-12-25T16:55:18.266Z,11.70
2022-12-25T16:57:47.579Z,11.70
2022-12-25T17:00:14.840Z,11.70
2022-12-25T17:02:41.721Z,11.70
2022-12-25T17:05:09.039Z,11.70
2022-12-25T17:07:37.292Z,11.80
2022-12-25T17:10:06.275Z,11.80
2022-12-25T17:12:33.937Z,11.80
2022-12-25T17:15:00.712Z,11.90
2022-12-25T17:17:27.494Z,11.90
2022-12-25T17:19:54.244Z,11.90
2022-12-25T17:22:21.005Z,11.90
2022-12-25T17:24:47.860Z,11.90
2022-12-25T17:27:14.754Z,11.90
2022-12-25T17:29:43.774Z,11.80
2022-12-25T17:32:12.482Z,11.90
2022-12-25T17:34:39.380Z,11.90
2022-12-25T17:37:06.498Z,11.90
2022-12-25T17:39:33.313Z,12.00
2022-12-25T17:42:00.091Z,12.00
2022-12-25T17:44:27.285Z,12.00
2022-12-25T17:46:54.152Z,12.00
2022-12-25T17:49:22.177Z,12.00
2022-12-25T17:51:49.010Z,12.00
2022-12-25T17:54:15.849Z,12.10
2022-12-25T17:56:42.718Z,12.10
2022-12-25T17:59:17.803Z,12.10
2022-12-25T18:01:45.954Z,12.10
2022-12-25T18:04:12.872Z,12.10
2022-12-25T18:06:39.777Z,12.10
2022-12-25T18:09:07.096Z,12.00
2022-12-25T18:11:33.990Z,12.00
2022-12-25T18:14:05.589Z,12.10
2022-12-25T18:16:36.816Z,12.00
2022-12-25T18:19:04.285Z,12.00
2022-12-25T18:21:31.328Z,12.00
2022-12-25T18:23:58.307Z,12.10
2022-12-25T18:26:25.935Z,12.00
2022-12-25T18:28:52.868Z,12.00
2022-12-25T18:31:22.298Z,12.00
2022-12-25T18:33:50.065Z,11.90
2022-12-25T18:36:20.088Z,12.00
2022-12-25T18:38:51.240Z,12.00
2022-12-25T18:41:19.619Z,12.00
2022-12-25T18:43:53.693Z,12.00
2022-12-25T18:46:26.706Z,12.00
2022-12-25T18:48:55.464Z,12.00
2022-12-25T18:51:22.604Z,12.00
2022-12-25T18:53:49.690Z,12.00
2022-12-25T18:56:18.485Z,11.90
2022-12-25T18:58:46.597Z,12.00
2022-12-25T19:01:14.900Z,12.00
2022-12-25T19:03:41.969Z,11.90
2022-12-25T19:06:09.031Z,11.90
2022-12-25T19:08:35.991Z,11.90
2022-12-25T19:11:07.290Z,11.90
2022-12-25T19:13:34.664Z,11.90
2022-12-25T19:16:01.745Z,12.00
2022-12-25T19:18:28.534Z,12.00
2022-12-25T19:20:55.273Z,12.00
2022-12-25T19:23:22.090Z,12.00
2022-12-25T19:25:49.546Z,12.00
2022-12-25T19:28:17.629Z,12.00
2022-12-25T19:30:44.765Z,12.10
2022-12-25T19:33:17.436Z,12.10
2022-12-25T19:35:44.685Z,12.00
2022-12-25T19:38:11.631Z,12.00
2022-12-25T19:40:39.857Z,12.00
2022-12-25T19:43:07.601Z,12.10
2022-12-25T19:45:34.483Z,12.10
2022-12-25T19:48:01.426Z,12.10
2022-12-25T19:50:32.611Z,12.10
2022-12-25T19:52:59.458Z,12.10
2022-12-25T19:55:26.256Z,12.10
2022-12-25T19:57:55.182Z,12.10
2022-12-25T20:00:21.926Z,12.00
2022-12-25T20:02:48.780Z,11.90
2022-12-25T20:05:15.653Z,11.90
2022-12-25T20:07:42.419Z,11.80
2022-12-25T20:10:09.816Z,11.80
2022-12-25T20:12:36.528Z,11.70
2022-12-25T20:15:03.534Z,11.70
2022-12-25T20:17:30.383Z,11.70
2022-12-25T20:19:57.126Z,11.60
2022-12-25T20:22:23.887Z,11.60
2022-12-25T20:24:50.649Z,11.50
2022-12-25T20:27:17.473Z,11.50
2022-12-25T20:29:44.239Z,11.50
2022-12-25T20:32:11.139Z,11.50
2022-12-25T20:34:38.009Z,11.40
2022-12-25T20:37:04.789Z,11.40
2022-12-25T20:39:31.574Z,11.30
2022-12-25T20:41:58.335Z,11.30
2022-12-25T20:44:25.094Z,11.30
2022-12-25T20:46:52.625Z,11.30
2022-12-25T20:49:19.324Z,11.30
2022-12-25T20:51:46.102Z,11.30
2022-12-25T20:54:14.776Z,11.30
2022-12-25T20:56:41.556Z,11.30
2022-12-25T20:59:09.259Z,11.30
2022-12-25T21:01:36.096Z,11.30
2022-12-25T21:04:03.066Z,11.30
2022-12-25T21:06:29.863Z,11.20
2022-12-25T21:08:56.824Z,11.20
2022-12-25T21:11:23.650Z,11.20
2022-12-25T21:13:50.606Z,11.30
2022-12-25T21:16:21.350Z,11.20
2022-12-25T21:18:49.614Z,11.20
2022-12-25T21:21:16.747Z,11.20
2022-12-25T21:23:43.625Z,11.30
2022-12-25T21:26:22.057Z,11.20
2022-12-25T21:28:51.172Z,11.30
2022-12-25T21:31:19.053Z,11.20
2022-12-25T21:33:52.180Z,11.20
2022-12-25T21:36:26.878Z,11.20
2022-12-25T21:38:55.252Z,11.20
2022-12-25T21:41:22.345Z,11.20
2022-12-25T21:43:49.211Z,11.20
2022-12-25T21:46:16.215Z,11.20
2022-12-25T21:48:45.275Z,11.20
2022-12-25T21:51:32.308Z,11.20
2022-12-25T21:53:59.732Z,11.20
2022-12-25T21:56:30.568Z,11.20
2022-12-25T21:59:01.472Z,11.20
2022-12-25T22:01:29.926Z,11.20
2022-12-25T22:04:01.543Z,11.20
2022-12-25T22:06:46.734Z,11.20
2022-12-25T22:09:14.486Z,11.20
2022-12-25T22:11:59.851Z,11.20
2022-12-25T22:14:52.072Z,11.20
2022-12-25T22:17:47.217Z,11.20
2022-12-25T22:20:20.273Z,11.10
2022-12-25T22:22:47.150Z,11.10
2022-12-25T22:25:15.065Z,11.10
2022-12-25T22:27:43.810Z,11.10
2022-12-25T22:30:16.606Z,11.10
2022-12-25T22:32:43.409Z,11.00
2022-12-25T22:35:12.027Z,11.00
2022-12-25T22:37:39.847Z,11.00
2022-12-25T22:40:07.925Z,11.00
2022-12-25T22:42:35.044Z,11.00
2022-12-25T22:45:02.457Z,11.10
2022-12-25T22:47:29.293Z,11.00
2022-12-25T22:49:56.072Z,11.10
2022-12-25T22:52:22.997Z,11.00
2022-12-25T22:54:49.826Z,11.00
2022-12-25T22:57:16.573Z,11.00
2022-12-25T22:59:43.489Z,11.00
2022-12-25T23:02:10.457Z,11.00
2022-12-25T23:04:37.370Z,11.00
2022-12-25T23:07:05.352Z,11.00
2022-12-25T23:09:32.120Z,11.00
2022-12-25T23:11:59.499Z,10.90
2022-12-25T23:14:38.632Z,11.00
2022-12-25T23:17:31.126Z,11.00
2022-12-25T23:20:18.765Z,10.90
2022-12-25T23:23:05.002Z,10.90
2022-12-25T23:25:50.490Z,10.90
2022-12-25T23:28:40.017Z,10.90
2022-12-25T23:31:07.386Z,10.90
2022-12-25T23:33:34.181Z,10.90
2022-12-25T23:36:01.067Z,10.90
2022-12-25T23:38:27.848Z,10.90
2022-12-25T23:40:54.618Z,10.90
2022-12-25T23:43:21.453Z,10.90
2022-12-25T23:45:48.195Z,10.90
2022-12-25T23:48:15.070Z,10.90
2022-12-25T23:50:41.896Z,10.80
2022-12-25T23:53:10.732Z,10.90
2022-12-25T23:55:37.571Z,10.90
2022-12-25T23:58:04.666Z,10.90
